createdAt,value
2017-10-26T00:00:19.408Z,12.20
2017-10-26T00:02:47.052Z,8.13
2017-10-26T00:05:14.577Z,4.67
2017-10-26T00:07:42.104Z,7.00
2017-10-26T00:10:09.681Z,6.27
2017-10-26T00:12:37.243Z,9.00
2017-10-26T00:15:04.814Z,4.67
2017-10-26T00:17:32.369Z,4.40
2017-10-26T00:19:59.914Z,7.00
2017-10-26T00:22:27.465Z,6.97
2017-10-26T00:24:55.024Z,5.63
2017-10-26T00:27:22.555Z,7.17
2017-10-26T00:29:50.111Z,13.67
2017-10-26T00:32:17.671Z,11.40
2017-10-26T00:34:45.211Z,10.90
2017-10-26T00:37:12.790Z,8.10
2017-10-26T00:39:40.332Z,6.50
2017-10-26T00:42:07.949Z,7.33
2017-10-26T00:44:35.497Z,6.23
2017-10-26T00:47:03.021Z,9.17
2017-10-26T00:49:30.587Z,63.90
2017-10-26T00:51:58.134Z,20.27
2017-10-26T00:54:25.687Z,19.97
2017-10-26T00:56:53.248Z,23.27
2017-10-26T00:59:20.780Z,11.87
2017-10-26T01:01:48.384Z,21.77
2017-10-26T01:04:16.073Z,12.17
2017-10-26T01:06:43.643Z,16.60
2017-10-26T01:09:11.303Z,13.33
2017-10-26T01:11:38.938Z,16.30
2017-10-26T01:14:06.471Z,6.80
2017-10-26T01:16:33.998Z,8.37
2017-10-26T01:19:01.656Z,5.53
2017-10-26T01:21:29.227Z,4.60
2017-10-26T01:23:56.772Z,11.40
2017-10-26T01:26:24.372Z,12.10
2017-10-26T01:28:51.901Z,9.50
2017-10-26T01:31:19.541Z,12.00
2017-10-26T01:33:47.118Z,10.73
2017-10-26T01:36:14.681Z,7.93
2017-10-26T01:38:42.257Z,12.53
2017-10-26T01:41:09.841Z,6.77
2017-10-26T01:43:37.383Z,8.60
2017-10-26T01:46:04.987Z,9.80
2017-10-26T01:48:32.529Z,10.33
2017-10-26T01:51:00.093Z,8.53
2017-10-26T01:53:27.663Z,8.47
2017-10-26T01:55:55.554Z,7.60
2017-10-26T01:58:23.517Z,7.50
2017-10-26T02:00:51.072Z,8.50
2017-10-26T02:03:18.601Z,7.80
2017-10-26T02:05:46.127Z,5.63
2017-10-26T02:08:13.668Z,6.90
2017-10-26T02:10:41.209Z,8.67
2017-10-26T02:13:09.854Z,4.80
2017-10-26T02:15:37.515Z,7.40
2017-10-26T02:18:06.660Z,8.63
2017-10-26T02:20:34.176Z,8.67
2017-10-26T02:23:02.495Z,7.40
2017-10-26T02:25:30.068Z,9.60
2017-10-26T02:27:57.609Z,7.33
2017-10-26T02:30:36.853Z,4.97
2017-10-26T02:33:04.411Z,4.97
2017-10-26T02:35:32.012Z,5.10
2017-10-26T02:38:00.393Z,7.57
2017-10-26T02:40:27.929Z,6.27
2017-10-26T02:42:55.470Z,6.63
2017-10-26T02:45:23.024Z,8.97
2017-10-26T02:47:50.877Z,5.90
2017-10-26T02:50:18.489Z,4.97
2017-10-26T02:52:47.284Z,9.47
2017-10-26T02:55:15.059Z,9.13
2017-10-26T02:57:43.073Z,7.27
2017-10-26T03:00:10.691Z,7.00
2017-10-26T03:02:38.232Z,11.70
2017-10-26T03:05:05.836Z,14.07
2017-10-26T03:07:33.517Z,6.77
2017-10-26T03:10:01.051Z,7.30
2017-10-26T03:12:28.587Z,9.20
2017-10-26T03:14:56.143Z,6.07
2017-10-26T03:17:23.687Z,6.73
2017-10-26T03:19:51.233Z,7.90
2017-10-26T03:22:18.793Z,11.63
2017-10-26T03:24:46.328Z,19.50
2017-10-26T03:27:13.864Z,9.57
2017-10-26T03:29:41.421Z,9.67
2017-10-26T03:32:08.994Z,5.20
2017-10-26T03:34:36.525Z,11.47
2017-10-26T03:37:04.193Z,5.53
2017-10-26T03:39:31.764Z,10.43
2017-10-26T03:41:59.325Z,10.57
2017-10-26T03:44:26.888Z,6.60
2017-10-26T03:46:54.433Z,15.90
2017-10-26T03:49:22.123Z,6.77
2017-10-26T03:51:49.668Z,6.57
2017-10-26T03:54:17.205Z,10.90
2017-10-26T03:56:44.779Z,6.00
2017-10-26T03:59:12.519Z,7.37
2017-10-26T04:01:40.056Z,8.33
2017-10-26T04:04:08.444Z,8.23
2017-10-26T04:06:36.020Z,14.10
2017-10-26T04:09:03.848Z,7.90
2017-10-26T04:11:31.474Z,8.70
2017-10-26T04:13:59.061Z,11.20
2017-10-26T04:16:26.587Z,7.80
2017-10-26T04:18:54.113Z,13.63
2017-10-26T04:21:21.684Z,9.23
2017-10-26T04:23:49.232Z,9.73
2017-10-26T04:26:16.805Z,8.87
2017-10-26T04:28:44.350Z,7.37
2017-10-26T04:31:12.160Z,27.57
2017-10-26T04:33:39.750Z,21.63
2017-10-26T04:36:07.320Z,17.10
2017-10-26T04:38:34.904Z,13.43
2017-10-26T04:41:02.467Z,17.63
2017-10-26T04:43:30.403Z,17.70
2017-10-26T04:45:57.971Z,12.70
2017-10-26T04:48:25.549Z,12.73
2017-10-26T04:50:53.091Z,15.80
2017-10-26T04:53:20.642Z,26.13
2017-10-26T04:55:48.228Z,23.47
2017-10-26T04:58:15.788Z,17.10
2017-10-26T05:00:43.328Z,13.23
2017-10-26T05:03:10.997Z,12.63
2017-10-26T05:05:38.527Z,13.77
2017-10-26T05:08:06.051Z,12.17
2017-10-26T05:10:33.644Z,13.73
2017-10-26T05:13:01.186Z,8.73
2017-10-26T05:15:28.718Z,10.80
2017-10-26T05:17:56.281Z,14.57
2017-10-26T05:20:23.849Z,16.60
2017-10-26T05:22:51.384Z,11.03
2017-10-26T05:25:23.931Z,13.23
2017-10-26T05:27:51.492Z,11.80
2017-10-26T05:30:19.013Z,10.60
2017-10-26T05:32:46.561Z,14.50
2017-10-26T05:35:14.121Z,11.10
2017-10-26T05:37:42.033Z,8.03
2017-10-26T05:40:09.553Z,11.77
2017-10-26T05:42:37.114Z,9.47
2017-10-26T05:45:05.026Z,8.70
2017-10-26T05:47:32.718Z,11.63
2017-10-26T05:50:00.291Z,10.50
2017-10-26T05:52:27.882Z,7.93
2017-10-26T05:54:55.429Z,8.43
2017-10-26T05:57:22.961Z,13.77
2017-10-26T05:59:50.532Z,9.13
2017-10-26T06:02:18.073Z,14.30
2017-10-26T06:04:45.612Z,8.80
2017-10-26T06:07:13.333Z,14.90
2017-10-26T06:09:41.097Z,17.00
2017-10-26T06:12:08.697Z,20.27
2017-10-26T06:14:36.867Z,19.60
2017-10-26T06:17:04.432Z,16.77
2017-10-26T06:19:31.975Z,18.20
2017-10-26T06:21:59.512Z,17.53
2017-10-26T06:24:27.104Z,22.90
2017-10-26T06:26:54.640Z,21.30
2017-10-26T06:29:22.202Z,16.53
2017-10-26T06:31:49.756Z,17.87
2017-10-26T06:34:17.340Z,15.13
2017-10-26T06:36:44.899Z,15.50
2017-10-26T06:39:12.457Z,16.63
2017-10-26T06:41:40.076Z,23.33
2017-10-26T06:44:07.628Z,18.10
2017-10-26T06:46:35.168Z,15.23
2017-10-26T06:49:03.486Z,14.70
2017-10-26T06:51:31.079Z,14.63
2017-10-26T06:53:58.620Z,14.30
2017-10-26T06:56:26.210Z,19.30
2017-10-26T06:58:53.877Z,19.70
2017-10-26T07:01:21.421Z,21.00
2017-10-26T07:03:49.323Z,21.83
2017-10-26T07:06:16.938Z,17.17
2017-10-26T07:08:44.481Z,19.93
2017-10-26T07:11:12.282Z,29.30
2017-10-26T07:13:40.109Z,45.70
2017-10-26T07:16:07.648Z,68.03
2017-10-26T07:18:35.249Z,62.20
2017-10-26T07:21:02.797Z,61.17
2017-10-26T07:23:30.347Z,60.83
2017-10-26T07:25:58.752Z,57.20
2017-10-26T07:28:26.463Z,51.70
2017-10-26T07:30:54.030Z,40.53
2017-10-26T07:33:21.580Z,26.50
2017-10-26T07:35:49.152Z,32.93
2017-10-26T07:38:16.711Z,23.50
2017-10-26T07:40:44.284Z,42.97
2017-10-26T07:43:11.825Z,28.23
2017-10-26T07:45:39.376Z,28.70
2017-10-26T07:48:06.969Z,23.93
2017-10-26T07:50:34.510Z,24.13
2017-10-26T07:53:02.091Z,28.73
2017-10-26T07:55:29.677Z,29.63
2017-10-26T07:57:57.250Z,25.73
2017-10-26T08:00:25.271Z,31.57
2017-10-26T08:02:52.837Z,24.90
2017-10-26T08:05:20.389Z,26.90
2017-10-26T08:07:47.965Z,20.43
2017-10-26T08:10:15.520Z,28.80
2017-10-26T08:12:43.061Z,18.67
2017-10-26T08:15:10.693Z,14.20
2017-10-26T08:17:38.501Z,18.63
2017-10-26T08:20:06.148Z,15.90
2017-10-26T08:22:33.731Z,12.30
2017-10-26T08:25:01.294Z,28.17
2017-10-26T08:27:28.837Z,47.17
2017-10-26T08:29:56.445Z,22.83
2017-10-26T08:32:24.095Z,16.60
2017-10-26T08:34:51.647Z,20.00
2017-10-26T08:37:19.230Z,15.33
2017-10-26T08:39:46.797Z,13.93
2017-10-26T08:42:14.363Z,14.07
2017-10-26T08:44:42.126Z,14.47
2017-10-26T08:47:09.700Z,12.63
2017-10-26T08:49:37.340Z,15.67
2017-10-26T08:52:04.900Z,12.20
2017-10-26T08:54:32.431Z,19.00
2017-10-26T08:56:59.980Z,10.80
2017-10-26T08:59:27.543Z,9.90
2017-10-26T09:01:55.102Z,11.83
2017-10-26T09:04:22.707Z,10.53
2017-10-26T09:06:50.268Z,9.57
2017-10-26T09:09:17.865Z,8.67
2017-10-26T09:11:45.464Z,9.87
2017-10-26T09:14:13.023Z,15.40
2017-10-26T09:16:40.592Z,11.47
2017-10-26T09:19:08.303Z,9.53
2017-10-26T09:21:35.908Z,9.93
2017-10-26T09:24:03.455Z,9.60
2017-10-26T09:26:31.080Z,9.37
2017-10-26T09:28:58.643Z,13.20
2017-10-26T09:31:26.416Z,9.33
2017-10-26T09:33:54.036Z,10.17
2017-10-26T09:36:21.585Z,9.80
2017-10-26T09:38:49.402Z,9.07
2017-10-26T09:41:16.975Z,11.40
2017-10-26T09:43:49.581Z,12.57
2017-10-26T09:46:17.162Z,10.37
2017-10-26T09:48:45.237Z,8.40
2017-10-26T09:51:12.835Z,12.53
2017-10-26T09:53:40.477Z,10.83
2017-10-26T09:56:08.060Z,10.60
2017-10-26T09:58:35.616Z,11.17
2017-10-26T10:01:12.572Z,7.80
2017-10-26T10:03:41.122Z,9.67
2017-10-26T10:06:10.021Z,13.40
2017-10-26T10:08:37.637Z,10.83
2017-10-26T10:11:07.999Z,9.90
2017-10-26T10:13:35.777Z,12.97
2017-10-26T10:16:03.409Z,11.90
2017-10-26T10:18:31.116Z,10.50
2017-10-26T10:20:58.708Z,10.77
2017-10-26T10:23:26.347Z,8.77
2017-10-26T10:25:54.064Z,11.40
2017-10-26T10:28:22.131Z,14.10
2017-10-26T10:30:50.350Z,14.50
2017-10-26T10:33:21.840Z,15.13
2017-10-26T10:35:49.472Z,17.53
2017-10-26T10:38:17.194Z,13.90
2017-10-26T10:40:44.805Z,18.37
2017-10-26T10:43:14.059Z,13.73
2017-10-26T10:45:41.656Z,16.20
2017-10-26T10:48:09.248Z,14.20
2017-10-26T10:50:37.000Z,14.63
2017-10-26T10:53:04.868Z,14.53
2017-10-26T10:55:33.101Z,16.60
2017-10-26T10:58:02.008Z,16.50
2017-10-26T11:00:33.634Z,13.53
2017-10-26T11:03:01.186Z,13.30
2017-10-26T11:05:29.725Z,11.67
2017-10-26T11:07:57.348Z,10.97
2017-10-26T11:10:25.035Z,14.10
2017-10-26T11:12:52.747Z,13.13
2017-10-26T11:15:20.374Z,14.63
2017-10-26T11:17:48.206Z,15.63
2017-10-26T11:22:47.758Z,15.03
2017-10-26T11:25:15.579Z,11.90
2017-10-26T11:27:43.742Z,15.03
2017-10-26T11:30:12.517Z,16.30
2017-10-26T11:32:41.799Z,11.87
2017-10-26T11:35:10.098Z,13.80
2017-10-26T11:37:37.730Z,12.30
2017-10-26T11:40:05.511Z,11.33
2017-10-26T11:42:33.353Z,12.63
2017-10-26T11:45:00.969Z,13.07
2017-10-26T11:47:28.787Z,12.07
2017-10-26T11:49:56.403Z,12.00
2017-10-26T11:52:24.680Z,14.13
2017-10-26T11:54:52.348Z,10.57
2017-10-26T11:57:20.338Z,10.17
2017-10-26T11:59:47.912Z,9.63
2017-10-26T12:02:15.582Z,11.27
2017-10-26T12:04:43.159Z,12.73
2017-10-26T12:07:10.841Z,11.97
2017-10-26T12:09:38.448Z,11.90
2017-10-26T12:12:06.037Z,13.00
2017-10-26T12:14:33.587Z,9.67
2017-10-26T12:17:01.211Z,14.10
2017-10-26T12:19:28.783Z,11.13
2017-10-26T12:21:56.345Z,9.83
2017-10-26T12:24:24.620Z,10.90
2017-10-26T12:26:52.201Z,18.80
2017-10-26T12:29:19.808Z,12.97
2017-10-26T12:31:47.393Z,11.37
2017-10-26T12:34:14.964Z,10.70
2017-10-26T12:36:42.554Z,9.30
2017-10-26T12:39:11.539Z,9.63
2017-10-26T12:41:39.143Z,10.20
2017-10-26T12:44:06.723Z,11.07
2017-10-26T12:46:35.586Z,15.13
2017-10-26T12:49:03.149Z,10.50
2017-10-26T12:51:30.739Z,7.97
2017-10-26T12:53:58.324Z,12.57
2017-10-26T12:56:25.914Z,13.07
2017-10-26T12:58:53.530Z,12.50
2017-10-26T13:03:53.989Z,12.30
2017-10-26T13:06:21.580Z,13.23
2017-10-26T13:08:49.198Z,9.60
2017-10-26T13:11:16.780Z,15.33
2017-10-26T13:13:44.971Z,12.80
2017-10-26T13:16:13.563Z,11.37
2017-10-26T13:21:31.429Z,16.37
2017-10-26T13:23:59.039Z,16.20
2017-10-26T13:26:26.632Z,18.17
2017-10-26T13:28:54.227Z,14.57
2017-10-26T13:31:21.785Z,13.00
2017-10-26T13:33:49.374Z,15.90
2017-10-26T13:36:16.951Z,18.83
2017-10-26T13:38:44.637Z,17.50
2017-10-26T13:41:12.380Z,16.27
2017-10-26T13:43:39.962Z,13.40
2017-10-26T13:46:07.565Z,13.80
2017-10-26T13:48:35.193Z,14.53
2017-10-26T13:51:02.849Z,14.20
2017-10-26T13:53:30.444Z,17.60
2017-10-26T13:55:58.361Z,19.80
2017-10-26T13:58:26.037Z,14.30
2017-10-26T14:00:53.891Z,15.93
2017-10-26T14:03:21.748Z,18.03
2017-10-26T14:05:52.211Z,15.27
2017-10-26T14:08:19.855Z,17.87
2017-10-26T14:10:47.543Z,21.07
2017-10-26T14:13:15.172Z,14.37
2017-10-26T14:15:42.834Z,15.70
2017-10-26T14:18:10.446Z,15.60
2017-10-26T14:20:38.248Z,14.77
2017-10-26T14:23:06.210Z,17.57
2017-10-26T14:25:33.883Z,19.03
2017-10-26T14:28:02.666Z,15.63
2017-10-26T14:30:31.200Z,18.70
2017-10-26T14:32:58.842Z,17.60
2017-10-26T14:35:26.446Z,18.17
2017-10-26T14:37:54.037Z,16.03
2017-10-26T14:40:21.903Z,14.17
2017-10-26T14:42:49.558Z,15.40
2017-10-26T14:45:17.120Z,15.10
2017-10-26T14:47:44.705Z,20.60
2017-10-26T14:50:12.323Z,15.43
2017-10-26T14:52:39.914Z,12.60
2017-10-26T14:55:07.551Z,14.77
2017-10-26T14:57:35.661Z,15.10
2017-10-26T15:00:03.613Z,10.53
2017-10-26T15:05:21.805Z,14.63
2017-10-26T15:07:49.406Z,15.27
2017-10-26T15:10:17.025Z,16.80
2017-10-26T15:12:44.678Z,14.93
2017-10-26T15:15:12.252Z,15.40
2017-10-26T15:17:39.843Z,13.90
2017-10-26T15:20:07.533Z,12.73
2017-10-26T15:22:35.091Z,13.77
2017-10-26T15:25:02.696Z,15.67
2017-10-26T15:27:30.448Z,12.10
2017-10-26T15:29:58.023Z,12.63
2017-10-26T15:32:25.620Z,15.13
2017-10-26T15:34:53.264Z,9.30
2017-10-26T15:37:20.826Z,12.63
2017-10-26T15:39:48.447Z,16.07
2017-10-26T15:42:16.078Z,18.83
2017-10-26T15:44:45.867Z,27.23
2017-10-26T15:47:13.718Z,14.80
2017-10-26T15:49:41.334Z,21.87
2017-10-26T15:52:09.199Z,20.73
2017-10-26T15:57:27.173Z,8.30
2017-10-26T15:59:54.789Z,10.20
2017-10-26T16:02:23.475Z,8.90
2017-10-26T16:04:51.044Z,9.30
2017-10-26T16:07:18.612Z,8.77
2017-10-26T16:09:46.152Z,6.70
2017-10-26T16:12:13.725Z,9.50
2017-10-26T16:14:41.276Z,9.63
2017-10-26T16:17:08.893Z,7.10
2017-10-26T16:19:36.484Z,12.00
2017-10-26T16:22:04.030Z,7.50
2017-10-26T16:24:31.587Z,11.40
2017-10-26T16:26:59.249Z,16.00
2017-10-26T16:29:26.870Z,9.93
2017-10-26T16:31:54.468Z,15.43
2017-10-26T16:34:22.944Z,13.50
2017-10-26T16:36:50.532Z,8.97
2017-10-26T16:39:18.112Z,11.30
2017-10-26T16:41:45.704Z,9.20
2017-10-26T16:44:13.343Z,10.63
2017-10-26T16:46:40.919Z,11.63
2017-10-26T16:49:08.934Z,12.83
2017-10-26T16:51:36.632Z,6.97
2017-10-26T16:54:07.415Z,9.50
2017-10-26T16:56:35.045Z,11.23
2017-10-26T16:59:02.601Z,8.30
2017-10-26T17:01:30.385Z,10.57
2017-10-26T17:03:58.145Z,9.30
2017-10-26T17:06:25.789Z,9.60
2017-10-26T17:08:53.572Z,15.63
2017-10-26T17:11:21.298Z,8.50
2017-10-26T17:13:48.961Z,6.63
2017-10-26T17:16:16.574Z,6.70
2017-10-26T17:18:44.285Z,8.97
2017-10-26T17:21:12.421Z,6.90
2017-10-26T17:23:40.147Z,8.83
2017-10-26T17:26:07.805Z,7.77
2017-10-26T17:28:35.472Z,10.13
2017-10-26T17:31:03.067Z,6.73
2017-10-26T17:33:30.675Z,10.33
2017-10-26T17:35:58.332Z,8.37
2017-10-26T17:38:25.907Z,10.13
2017-10-26T17:40:53.530Z,7.43
2017-10-26T17:43:21.124Z,10.43
2017-10-26T17:45:48.751Z,10.17
2017-10-26T17:48:16.333Z,9.23
2017-10-26T17:50:43.918Z,12.63
2017-10-26T17:53:11.500Z,11.97
2017-10-26T17:55:39.104Z,14.40
2017-10-26T17:58:06.659Z,12.83
2017-10-26T18:00:34.656Z,13.40
2017-10-26T18:03:11.493Z,13.60
2017-10-26T18:05:39.331Z,10.40
2017-10-26T18:08:06.953Z,9.97
2017-10-26T18:10:34.637Z,10.87
2017-10-26T18:13:02.267Z,19.43
2017-10-26T18:15:29.975Z,15.73
2017-10-26T18:17:57.700Z,14.00
2017-10-26T18:20:25.620Z,14.00
2017-10-26T18:22:53.255Z,17.40
2017-10-26T18:25:20.947Z,15.77
2017-10-26T18:27:48.741Z,27.77
2017-10-26T18:30:16.366Z,14.80
2017-10-26T18:32:43.930Z,13.23
2017-10-26T18:35:11.758Z,11.93
2017-10-26T18:37:39.496Z,24.17
2017-10-26T18:40:07.051Z,11.93
2017-10-26T18:42:34.867Z,11.83
2017-10-26T18:45:02.633Z,14.47
2017-10-26T18:47:30.585Z,14.43
2017-10-26T18:49:58.207Z,14.17
2017-10-26T18:52:25.775Z,14.03
2017-10-26T18:54:54.780Z,9.37
2017-10-26T18:57:22.555Z,13.87
2017-10-26T18:59:50.120Z,11.70
2017-10-26T19:02:17.724Z,16.97
2017-10-26T19:04:45.304Z,18.50
2017-10-26T19:07:12.880Z,17.43
2017-10-26T19:09:40.480Z,12.60
2017-10-26T19:12:08.055Z,12.63
2017-10-26T19:14:35.652Z,15.13
2017-10-26T19:17:03.250Z,13.37
2017-10-26T19:19:30.812Z,13.00
2017-10-26T19:21:58.368Z,14.13
2017-10-26T19:24:25.996Z,15.20
2017-10-26T19:26:53.582Z,14.30
2017-10-26T19:29:22.257Z,19.70
2017-10-26T19:31:49.878Z,20.07
2017-10-26T19:34:17.551Z,14.53
2017-10-26T19:36:45.314Z,17.50
2017-10-26T19:39:13.133Z,21.27
2017-10-26T19:41:40.699Z,22.00
2017-10-26T19:44:08.263Z,16.50
2017-10-26T19:46:35.846Z,34.50
2017-10-26T19:49:03.430Z,32.67
2017-10-26T19:51:30.988Z,29.03
2017-10-26T19:53:58.598Z,30.47
2017-10-26T19:56:26.166Z,18.67
2017-10-26T19:58:53.726Z,31.63
2017-10-26T20:01:21.314Z,36.03
2017-10-26T20:03:48.868Z,32.50
2017-10-26T20:06:16.443Z,35.07
2017-10-26T20:08:44.033Z,47.40
2017-10-26T20:11:12.519Z,33.67
2017-10-26T20:13:40.078Z,30.47
2017-10-26T20:16:07.674Z,43.80
2017-10-26T20:18:35.252Z,42.87
2017-10-26T20:21:02.837Z,32.83
2017-10-26T20:23:31.043Z,26.73
2017-10-26T20:25:58.657Z,33.37
2017-10-26T20:28:26.244Z,35.83
2017-10-26T20:30:53.836Z,37.87
2017-10-26T20:33:21.466Z,33.77
2017-10-26T20:35:49.068Z,29.47
2017-10-26T20:38:16.676Z,35.10
2017-10-26T20:40:44.232Z,28.80
2017-10-26T20:43:11.839Z,33.80
2017-10-26T20:45:39.411Z,26.73
2017-10-26T20:48:06.998Z,38.93
2017-10-26T20:53:42.317Z,42.80
2017-10-26T20:56:15.701Z,35.00
2017-10-26T20:58:48.826Z,27.97
2017-10-26T21:01:22.449Z,27.80
2017-10-26T21:03:55.426Z,27.50
2017-10-26T21:06:23.227Z,33.90
2017-10-26T21:08:56.383Z,38.07
2017-10-26T21:11:29.370Z,34.60
2017-10-26T21:14:02.551Z,30.00
2017-10-26T21:16:30.134Z,28.67
2017-10-26T21:18:57.722Z,31.70
2017-10-26T21:21:25.287Z,28.17
2017-10-26T21:23:52.887Z,33.40
2017-10-26T21:26:20.466Z,28.13
2017-10-26T21:28:48.059Z,48.60
2017-10-26T21:31:15.668Z,32.57
2017-10-26T21:33:48.879Z,41.20
2017-10-26T21:36:16.462Z,27.50
2017-10-26T21:38:44.073Z,35.03
2017-10-26T21:41:12.018Z,29.40
2017-10-26T21:43:39.574Z,25.43
2017-10-26T21:46:07.147Z,29.03
2017-10-26T21:48:34.758Z,29.83
2017-10-26T21:51:02.311Z,36.70
2017-10-26T21:53:29.862Z,28.90
2017-10-26T21:55:57.475Z,32.13
2017-10-26T21:58:25.034Z,35.20
2017-10-26T22:00:52.592Z,33.63
2017-10-26T22:03:20.169Z,32.13
2017-10-26T22:05:47.786Z,29.67
2017-10-26T22:08:15.384Z,41.10
2017-10-26T22:10:42.944Z,40.00
2017-10-26T22:13:10.773Z,33.33
2017-10-26T22:15:38.325Z,32.20
2017-10-26T22:18:06.185Z,34.43
2017-10-26T22:20:33.771Z,37.60
2017-10-26T22:23:01.343Z,36.43
2017-10-26T22:25:28.889Z,34.70
2017-10-26T22:27:56.606Z,37.43
2017-10-26T22:30:34.918Z,40.30
2017-10-26T22:33:02.498Z,35.47
2017-10-26T22:35:30.073Z,37.27
2017-10-26T22:37:57.824Z,37.23
2017-10-26T22:40:25.518Z,38.67
2017-10-26T22:42:53.065Z,35.03
2017-10-26T22:45:20.934Z,36.73
2017-10-26T22:47:48.622Z,35.63
2017-10-26T22:50:16.180Z,35.40
2017-10-26T22:52:43.753Z,45.60
2017-10-26T22:55:11.428Z,44.63
2017-10-26T22:57:38.993Z,39.70
2017-10-26T23:00:06.556Z,51.07
2017-10-26T23:02:34.178Z,49.07
2017-10-26T23:05:01.754Z,45.33
2017-10-26T23:07:29.355Z,34.60
2017-10-26T23:09:56.950Z,33.17
2017-10-26T23:12:24.513Z,30.47
2017-10-26T23:14:52.080Z,34.80
2017-10-26T23:17:19.650Z,27.03
2017-10-26T23:19:47.232Z,27.23
2017-10-26T23:22:14.779Z,29.50
2017-10-26T23:24:42.378Z,39.00
2017-10-26T23:27:10.038Z,38.87
2017-10-26T23:29:37.595Z,34.40
2017-10-26T23:32:05.191Z,39.50
2017-10-26T23:34:32.783Z,32.50
2017-10-26T23:37:00.336Z,35.30
2017-10-26T23:39:27.914Z,32.73
2017-10-26T23:41:55.483Z,32.50
2017-10-26T23:44:23.042Z,38.17
2017-10-26T23:46:50.644Z,35.20
2017-10-26T23:49:18.222Z,34.03
2017-10-26T23:51:45.798Z,34.97
2017-10-26T23:54:13.405Z,44.63
2017-10-26T23:56:40.988Z,37.63
2017-10-26T23:59:08.503Z,24.60
